Latest Weather Observations for Point Perpendicular

IDN60801

Issued at 10:32 am EDT Tuesday 17 October 2017 (issued every 30 minutes, with the page automatically refreshed every 10 minutes)

About weather observations | Map of weather stations | Latest weather observations for NSW | Other Formats
Station Details ID: 068151 Name: POINT PERPENDICULAR AWS Lat: -35.09 Lon: 150.80 Height: 85.0 m
Data from the previous 72 hours. | See also: Recent months at Point Perpendicular
Date/Time
EDT
Temp
°C
App
Temp
°C
Dew
Point
°C
Rel
Hum
%
Delta-T
°C
Wind Press
QNH
hPa
Press
MSL
hPa
Rain since
9am
mm
Dir  Spd
km/h
Gust
km/h
Spd
kts
Gust
kts
17/10:30am 21.5 19.1 14.4 64 4.1 NNE 20 33 11 18 1028.5 1028.4 0.0
17/10:00am 21.1 18.4 13.5 62 4.4 NNE 20 32 11 17 1028.5 1028.4 0.0
17/09:30am 20.8 18.3 13.5 63 4.2 NNE 19 32 10 17 1028.3 1028.2 0.0
17/09:00am 20.5 18.6 14.2 67 3.6 NNE 17 26 9 14 1028.2 1028.1 0.0
17/08:30am 19.1 17.4 13.5 70 3.2 N 15 22 8 12 1027.8 1027.7 0.0
17/08:00am 17.8 17.3 13.7 77 2.3 N 9 19 5 10 1027.7 1027.6 0.0
17/07:30am 16.1 16.0 13.2 83 1.6 NNE 6 9 3 5 1027.4 1027.2 0.0
17/07:00am 14.0 13.8 13.1 94 0.5 NNW 6 7 3 4 1027.1 1026.9 0.0
17/06:30am 13.1 13.0 12.0 93 0.6 NNW 4 6 2 3 1027.0 1026.8 0.0
17/06:00am 13.1 13.1 12.5 96 0.3 NW 4 6 2 3 1026.9 1026.7 0.0
17/05:30am 14.3 15.2 14.1 99 0.1 WNW 2 4 1 2 1027.0 1026.8 0.0
17/05:00am 14.5 14.6 14.0 97 0.3 NW 6 7 3 4 1027.0 1026.8 0.0
17/04:30am 14.9 15.4 14.1 95 0.5 WNW 4 6 2 3 1026.9 1026.7 0.0
17/04:00am 14.6 14.1 13.8 95 0.4 NNW 9 11 5 6 1027.0 1026.8 0.0
17/03:30am 14.5 13.9 13.5 94 0.6 N 9 13 5 7 1027.0 1026.8 0.0
17/03:00am 14.7 13.6 13.1 90 0.9 N 11 13 6 7 1027.1 1026.9 0.0
17/02:30am 15.5 14.5 13.5 88 1.1 N 11 13 6 7 1027.3 1027.1 0.0
17/02:00am 15.6 14.5 13.1 85 1.4 NNW 11 13 6 7 1027.6 1027.4 0.0
17/01:30am 15.6 14.3 13.6 88 1.1 N 13 13 7 7 1027.9 1027.8 0.0
17/01:00am 15.4 14.5 13.6 89 1.0 N 11 13 6 7 1028.1 1028.0 0.0
17/12:30am 15.5 14.6 13.7 89 1.0 N 11 13 6 7 1028.3 1028.2 0.0
17/12:00am 16.2 16.0 14.6 90 0.9 N 9 13 5 7 1028.4 1028.3 0.0
 
Date/Time
EDT
Temp
°C
App
Temp
°C
Dew
Point
°C
Rel
Hum
%
Delta-T
°C
Wind Press
QNH
hPa
Press
MSL
hPa
Rain since
9am
mm
Dir  Spd
km/h
Gust
km/h
Spd
kts
Gust
kts
16/11:30pm 16.5 15.7 15.2 92 0.8 N 13 17 7 9 1028.4 1028.3 0.0
16/11:00pm 16.9 15.8 15.4 91 0.9 N 15 20 8 11 1028.3 1028.2 0.0
16/10:30pm 17.0 14.9 14.8 87 1.3 N 19 26 10 14 1028.0 1027.9 0.0
16/10:00pm 17.1 14.9 14.9 87 1.3 NNE 20 28 11 15 1027.9 1027.8 0.0
16/09:30pm 16.9 14.2 14.5 86 1.4 NNE 22 32 12 17 1028.0 1027.9 0.0
16/09:00pm 16.7 14.2 14.2 85 1.4 NNE 20 26 11 14 1027.8 1027.7 0.0
16/08:30pm 16.8 15.0 14.4 86 1.4 NNE 17 24 9 13 1027.6 1027.4 0.0
16/08:00pm 17.0 15.2 14.5 85 1.4 NNE 17 26 9 14 1027.3 1027.1 0.0
16/07:30pm 17.3 15.9 14.6 84 1.6 NE 15 20 8 11 1027.1 1026.9 0.0
16/07:00pm 17.7 16.2 14.2 80 2.0 NE 15 20 8 11 1026.8 1026.6 0.0
16/06:30pm 18.4 16.5 14.1 76 2.5 NE 17 22 9 12 1026.7 1026.5 0.0
16/06:00pm 18.9 16.6 14.2 74 2.7 NE 19 28 10 15 1026.7 1026.5 0.0
16/05:30pm 19.2 16.8 14.5 74 2.7 NE 20 32 11 17 1026.5 1026.3 0.0
16/05:00pm 19.8 16.6 14.2 70 3.2 NE 24 33 13 18 1026.3 1026.1 0.0
16/04:30pm 20.0 16.3 13.9 68 3.5 NE 26 35 14 19 1026.3 1026.1 0.0
16/04:00pm 20.6 17.5 14.5 68 3.6 NE 24 33 13 18 1026.5 1026.3 0.0
16/03:30pm 20.5 17.9 14.8 70 3.4 NE 22 35 12 19 1026.6 1026.4 0.0
16/03:00pm 20.8 18.7 15.1 70 3.4 NE 20 30 11 16 1026.7 1026.5 0.0
16/02:30pm 21.1 18.1 14.7 67 3.8 NE 24 33 13 18 1027.0 1026.8 0.0
16/02:00pm 20.9 18.0 15.2 70 3.4 NE 24 35 13 19 1027.5 1027.3 0.0
16/01:30pm 21.0 18.9 15.3 70 3.4 NE 20 28 11 15 1027.8 1027.7 0.0
16/01:00pm 20.7 18.9 16.9 79 2.3 ENE 22 32 12 17 1028.2 1028.1 0.0
16/12:30pm 19.4 18.0 16.6 84 1.7 ENE 19 24 10 13 1028.5 1028.4 0.0
16/12:00pm 19.9 18.9 16.7 82 1.9 ENE 17 22 9 12 1029.0 1028.9 0.0
16/11:30am 19.3 18.9 16.3 83 1.8 ENE 13 20 7 11 1029.2 1029.1 0.0
16/11:00am 18.5 18.4 16.1 86 1.4 SE 11 17 6 9 1029.3 1029.2 0.0
16/10:30am 18.6 18.9 16.0 85 1.5 ESE 9 13 5 7 1029.4 1029.3 0.0
16/10:00am 18.7 19.2 16.5 87 1.3 SE 9 11 5 6 1029.1 1029.0 0.0
16/09:30am 17.5 18.7 17.3 99 0.1 SSE 7 11 4 6 1028.9 1028.8 0.0
16/09:00am 16.5 17.3 16.3 99 0.1 SSE 7 9 4 5 1028.6 1028.5 0.0
16/08:30am 17.0 18.0 16.4 96 0.4 SSE 6 9 3 5 1028.4 1028.3 0.0
16/08:00am 16.7 17.3 15.9 95 0.5 SSE 7 11 4 6 1028.0 1027.9 0.0
16/07:30am 15.9 17.2 15.1 95 0.5 SSE 2 4 1 2 1027.7 1027.6 0.0
16/07:00am 15.7 16.6 15.2 97 0.3 WSW 4 4 2 2 1027.4 1027.2 0.0
16/06:30am 15.0 16.2 14.8 99 0.1 SW 2 6 1 3 1026.9 1026.7 0.0
16/06:00am 14.9 16.1 14.9 100 0.0 W 2 4 1 2 1026.7 1026.5 0.0
16/05:30am 14.7 15.8 14.5 99 0.1 W 2 4 1 2 1026.2 1026.0 0.0
16/05:00am 14.4 15.4 14.4 100 0.0 WNW 2 2 1 1 1026.0 1025.8 0.0
16/04:30am 14.2 14.3 14.0 99 0.1 NW 6 7 3 4 1025.8 1025.6 0.0
16/04:00am 14.9 15.0 13.9 94 0.6 NNW 6 7 3 4 1026.0 1025.8 0.0
16/03:30am 15.1 15.0 14.0 93 0.6 NW 7 9 4 5 1026.1 1025.9 0.0
16/03:00am 15.4 15.4 14.3 93 0.6 NNW 7 9 4 5 1026.2 1026.0 0.0
16/02:30am 15.4 14.7 14.4 94 0.6 N 11 13 6 7 1026.4 1026.2 0.0
16/02:00am 16.0 15.0 14.5 91 0.9 N 13 17 7 9 1026.3 1026.1 0.0
16/01:30am 15.8 14.7 15.2 96 0.3 NNE 15 19 8 10 1026.6 1026.4 0.0
16/01:00am 15.8 15.6 15.6 99 0.1 NNE 11 15 6 8 1026.9 1026.7 0.0
16/12:30am 16.1 16.4 15.9 99 0.1 NNE 9 11 5 6 1026.9 1026.7 0.0
16/12:00am 16.6 17.3 16.1 97 0.3 N 7 9 4 5 1026.8 1026.6 0.0
 
Date/Time
EDT
Temp
°C
App
Temp
°C
Dew
Point
°C
Rel
Hum
%
Delta-T
°C
Wind Press
QNH
hPa
Press
MSL
hPa
Rain since
9am
mm
Dir  Spd
km/h
Gust
km/h
Spd
kts
Gust
kts
15/11:30pm 16.7 17.2 16.5 99 0.1 NNE 9 11 5 6 1026.8 1026.6 0.0
15/11:00pm 16.3 15.7 15.7 96 0.4 NNE 13 17 7 9 1026.6 1026.4 0.0
15/10:30pm 16.5 15.5 15.5 94 0.6 NNE 15 20 8 11 1026.5 1026.3 0.0
15/10:00pm 16.7 15.2 15.4 92 0.8 NNE 17 22 9 12 1026.3 1026.1 0.0
15/09:30pm 16.8 15.3 15.2 90 0.9 NNE 17 24 9 13 1026.2 1026.0 0.0
15/09:00pm 16.8 14.7 14.8 88 1.2 NE 19 24 10 13 1025.9 1025.7 0.0
15/08:30pm 17.0 15.3 14.8 87 1.3 NE 17 22 9 12 1025.8 1025.6 0.0
15/08:00pm 17.0 15.2 14.5 85 1.4 NE 17 22 9 12 1025.5 1025.3 0.0
15/07:30pm 17.1 15.3 14.4 84 1.6 NE 17 24 9 13 1025.3 1025.1 0.0
15/07:00pm 17.4 15.0 13.9 80 2.0 NNE 19 26 10 14 1024.9 1024.7 0.0
15/06:30pm 18.1 15.1 13.6 75 2.6 NE 22 32 12 17 1024.7 1024.5 0.0
15/06:00pm 18.5 15.2 14.0 75 2.6 NE 24 32 13 17 1024.5 1024.3 0.0
15/05:30pm 18.9 16.4 14.0 73 2.8 NE 20 33 11 18 1024.4 1024.2 0.0
15/05:00pm 19.2 15.8 13.8 71 3.1 NE 24 33 13 18 1024.3 1024.1 0.0
15/04:30pm 19.3 16.2 13.3 68 3.4 NNE 22 32 12 17 1024.4 1024.2 0.0
15/04:00pm 19.6 16.8 13.3 67 3.6 NE 20 32 11 17 1024.4 1024.2 0.0
15/03:30pm 19.9 17.2 13.4 66 3.7 NE 20 30 11 16 1024.7 1024.5 0.0
15/03:00pm 20.2 18.0 14.3 69 3.4 ENE 19 26 10 14 1024.9 1024.7 0.0
15/02:30pm 19.9 17.6 14.0 69 3.4 ENE 19 28 10 15 1025.0 1024.8 0.0
15/02:00pm 20.2 17.9 14.1 68 3.5 ENE 19 26 10 14 1025.3 1025.1 0.0
15/01:30pm 19.5 17.3 13.4 68 3.5 ENE 17 24 9 13 1025.4 1025.2 0.0
15/01:00pm 19.9 17.9 14.0 69 3.4 E 17 22 9 12 1025.7 1025.5 0.0
15/12:30pm 17.7 15.7 14.0 79 2.1 ENE 17 20 9 11 1026.0 1025.8 0.0
15/12:00pm 17.6 16.5 14.3 81 1.9 ENE 13 17 7 9 1026.3 1026.1 0.0
15/11:30am 17.7 17.3 14.2 80 2.0 SSE 9 13 5 7 1026.5 1026.3 0.0
15/11:00am 17.5 16.9 13.6 78 2.2 SE 9 13 5 7 1026.6 1026.4 0.0
15/10:30am 17.6 16.5 13.1 75 2.5 ESE 11 15 6 8 1026.4 1026.2 0.0
15/10:00am 17.7 16.9 12.8 73 2.7 ESE 9 15 5 8 1026.2 1026.0 0.0
15/09:30am 17.7 16.9 12.8 73 2.7 E 9 15 5 8 1026.2 1026.0 0.0
15/09:00am 17.5 17.1 13.0 75 2.5 ESE 7 11 4 6 1026.0 1025.8 0.0
15/08:30am 15.9 16.5 13.0 83 1.6 SW 2 6 1 3 1025.8 1025.6 0.0
15/08:00am 15.2 15.9 13.4 89 1.0 WNW 2 4 1 2 1025.7 1025.5 0.0
15/07:30am 14.6 14.4 13.5 93 0.6 NW 7 15 4 8 1025.5 1025.3 0.0
15/07:00am 13.9 14.6 13.3 96 0.3 WNW 2 2 1 1 1025.2 1025.0 0.0
15/06:30am 13.7 14.8 13.5 99 0.1 CALM 0 2 0 1 1025.0 1024.8 0.0
15/06:00am 13.7 14.0 13.4 98 0.2 WNW 4 6 2 3 1024.8 1024.6 0.0
15/05:30am 14.0 14.5 12.9 93 0.6 WNW 2 4 1 2 1024.6 1024.4 0.0
15/05:00am 13.7 14.0 12.3 91 0.8 WNW 2 4 1 2 1024.6 1024.4 0.0
15/04:30am 14.1 13.8 12.7 91 0.8 SSE 6 7 3 4 1024.5 1024.3 0.0
15/04:00am 13.1 13.0 12.0 93 0.6 SW 4 4 2 2 1024.6 1024.4 0.0
15/03:30am 13.1 13.9 12.5 96 0.3 CALM 0 2 0 1 1024.8 1024.6 0.0
15/03:00am 13.3 13.9 13.1 99 0.1 W 2 4 1 2 1025.0 1024.8 0.0
15/02:30am 13.0 12.7 12.7 98 0.2 WNW 6 7 3 4 1025.3 1025.1 0.0
15/02:00am 13.0 13.7 12.1 94 0.5 CALM 0 2 0 1 1025.4 1025.2 0.0
15/01:30am 13.4 14.0 12.0 91 0.8 CALM 0 0 0 0 1025.6 1025.4 0.0
15/01:00am 13.8 14.3 11.7 87 1.1 CALM 0 2 0 1 1025.9 1025.7 0.0
15/12:30am 13.5 13.0 10.7 83 1.5 SSW 4 4 2 2 1026.0 1025.8 0.0
15/12:00am 13.9 13.4 10.7 81 1.7 SSW 4 6 2 3 1025.9 1025.7 0.0
 
Date/Time
EDT
Temp
°C
App
Temp
°C
Dew
Point
°C
Rel
Hum
%
Delta-T
°C
Wind Press
QNH
hPa
Press
MSL
hPa
Rain since
9am
mm
Dir  Spd
km/h
Gust
km/h
Spd
kts
Gust
kts
14/11:30pm 14.4 13.6 11.0 80 1.8 S 6 7 3 4 1026.1 1025.9 0.0
14/11:00pm 14.8 14.0 11.0 78 2.0 SSE 6 7 3 4 1026.2 1026.0 0.0
14/10:30pm 15.0 14.2 11.2 78 2.0 SE 6 7 3 4 1026.3 1026.1 0.0
14/10:00pm 15.2 14.4 11.2 77 2.1 E 6 7 3 4 1026.4 1026.2 0.0
14/09:30pm 15.3 14.5 10.9 75 2.3 ESE 6 7 3 4 1026.2 1026.0 0.0
14/09:00pm 15.4 14.5 10.8 74 2.4 ESE 6 9 3 5 1026.3 1026.1 0.0
14/08:30pm 15.4 14.5 10.8 74 2.4 ESE 6 9 3 5 1026.2 1026.0 0.0
14/08:00pm 15.4 14.2 10.4 72 2.6 ESE 7 11 4 6 1026.0 1025.8 0.0
14/07:30pm 15.4 14.3 10.6 73 2.5 ESE 7 9 4 5 1025.7 1025.5 0.0
14/07:00pm 15.4 14.8 10.4 72 2.6 ESE 4 7 2 4 1025.4 1025.2 0.0
14/06:30pm 15.4 14.4 10.4 72 2.6 SE 6 9 3 5 1025.0 1024.8 0.0
14/06:00pm 15.6 14.1 10.4 71 2.7 SSE 9 13 5 7 1024.7 1024.5 0.0
14/05:30pm 15.6 13.9 9.9 69 3.0 SE 9 17 5 9 1024.7 1024.5 0.0
14/05:00pm 16.2 14.6 10.1 67 3.2 SE 9 17 5 9 1024.5 1024.3 0.0
14/04:30pm 16.6 14.3 10.5 67 3.3 SSE 13 19 7 10 1024.3 1024.1 0.0
14/04:00pm 17.5 15.2 10.4 63 3.8 SSE 13 19 7 10 1024.1 1023.9 0.0
14/03:30pm 16.4 13.6 10.0 66 3.4 SSE 15 20 8 11 1024.2 1024.0 0.0
14/03:00pm 16.0 13.7 10.5 70 2.9 SSE 13 22 7 12 1024.5 1024.3 0.0
14/02:30pm 16.3 13.9 10.2 67 3.2 SSE 13 22 7 12 1024.7 1024.5 0.0
14/02:00pm 16.1 13.7 10.2 68 3.1 SSE 13 20 7 11 1024.9 1024.7 0.0
14/01:30pm 16.2 13.6 10.7 70 2.9 SSE 15 22 8 12 1024.9 1024.7 0.0
14/01:00pm 15.6 12.5 10.2 70 2.8 S 17 24 9 13 1025.1 1024.9 0.0
14/12:30pm 16.1 13.5 10.6 70 2.9 S 15 22 8 12 1025.4 1025.2 0.0
14/12:00pm 16.0 13.6 10.1 68 3.1 S 13 20 7 11 1025.6 1025.4 0.0
14/11:30am 17.1 13.9 10.0 63 3.8 S 17 24 9 13 1025.5 1025.3 0.0
14/11:00am 16.7 13.2 10.3 66 3.4 S 19 30 10 16 1025.4 1025.2 0.0

Other Formats:

Comma delimited format used in spreadsheet applications
http://www.bom.gov.au/fwo/IDN60801/IDN60801.95940.axf

JavaScript Object Notation format (JSON) in row-major order
http://www.bom.gov.au/fwo/IDN60801/IDN60801.95940.json